Tuesday, September 30, 2014, 9:48 AM EDT
Back to Local

KCXY, Harrisburg Capital City

Location: New Cumberland, PA, United States Lat: 40.217
Local Time: 9:48 AM EDT (13:48 GMT) Lon: -76.85
Time Zone: US/Eastern Elev: 347 ft

Show me the last for .
Show Decoded

2014-09-30 09:25 METAR KCXY 301325Z 09007KT 1SM R08/4500VP6000FT BR BKN002 OVC006 17/16 A2994 RMK
                 AO2 T01670161 =
2014-09-30 09:17 METAR KCXY 301317Z 11006KT 1 1/4SM R08/5500VP6000FT BR OVC005 17/16 A2994 RMK
                 AO2 CIG 002V007 T01720161 =
2014-09-30 08:56 METAR KCXY 301256Z 09005KT 2SM BR OVC007 17/16 A2995 RMK AO2 SLP140 T01720161 =
2014-09-30 07:56 METAR KCXY 301156Z 11004KT 2SM BR OVC007 17/16 A2993 RMK AO2 CIG 004V009 SLP135
                 T01720161 10172 20150 53009 =
2014-09-30 06:56 METAR KCXY 301056Z 00000KT 2SM BR OVC006 17/16 A2992 RMK AO2 CIG 003V008 SLP131
                 T01720161 =
2014-09-30 06:19 METAR KCXY 301019Z AUTO 00000KT 6SM BR OVC006 17/15 A2991 RMK AO2 CIG 003V008
                 T01670150 =
2014-09-30 05:56 METAR KCXY 300956Z AUTO 00000KT 7SM BKN004 OVC008 17/15 A2991 RMK AO2 SLP126
                 T01670150 =
2014-09-30 04:56 METAR KCXY 300856Z AUTO 00000KT 5SM BR BKN004 15/14 A2991 RMK AO2 SLP126
                 T01500139 55001 =
2014-09-30 04:54 METAR KCXY 300854Z AUTO 00000KT 5SM BR SCT004 15/14 A2990 RMK AO2 =
2014-09-30 03:56 METAR KCXY 300756Z AUTO 00000KT 5SM BR CLR 15/14 A2990 RMK AO2 SLP125 T01500139
                 =
2014-09-30 02:56 METAR KCXY 300656Z AUTO 00000KT 7SM CLR 16/14 A2991 RMK AO2 SLP127 T01560144 =
2014-09-30 01:56 METAR KCXY 300556Z AUTO 18003KT 9SM CLR 16/14 A2992 RMK AO2 SLP132 T01610144
                 10222 20161 55000 =
2014-09-30 00:56 METAR KCXY 300456Z AUTO 00000KT 10SM CLR 17/15 A2992 RMK AO2 SLP129 T01720150
                 402500144 =
2014-09-29 23:56 METAR KCXY 300356Z AUTO 00000KT 10SM CLR 19/16 A2993 RMK AO2 SLP133 T01890156 =
2014-09-29 22:56 METAR KCXY 300256Z AUTO 03003KT 10SM CLR 21/16 A2992 RMK AO2 SLP131 T02060156
                 50003 =
2014-09-29 21:56 METAR KCXY 300156Z AUTO 00000KT 10SM CLR 21/16 A2993 RMK AO2 SLP134 T02060156 =
2014-09-29 20:56 METAR KCXY 300056Z AUTO 00000KT 10SM CLR 21/15 A2993 RMK AO2 SLP133 T02110150 =
2014-09-29 19:56 METAR KCXY 292356Z 00000KT 10SM CLR 22/14 A2991 RMK AO2 SLP130 T02220144 10250
                 20217 58000 =
2014-09-29 18:56 METAR KCXY 292256Z 00000KT 10SM SCT120 22/15 A2992 RMK AO2 SLP132 T02220150 =
2014-09-29 17:56 METAR KCXY 292156Z 19003KT 10SM CLR 23/16 A2992 RMK AO2 SLP130 T02330156 =
2014-09-29 16:56 METAR KCXY 292056Z 00000KT 10SM CLR 24/15 A2991 RMK AO2 SLP129 T02390150 56012 =
2014-09-29 15:56 METAR KCXY 291956Z 19004KT 10SM CLR 24/16 A2992 RMK AO2 SLP132 T02440156 =
2014-09-29 14:56 METAR KCXY 291856Z 21004KT 10SM CLR 24/14 A2994 RMK AO2 SLP136 T02440139 =
2014-09-29 13:56 METAR KCXY 291756Z VRB04KT 10SM CLR 24/14 A2995 RMK AO2 SLP141 T02440144 10244
                 20156 58016 =
2014-09-29 12:56 METAR KCXY 291656Z 30003KT 10SM CLR 24/14 A2997 RMK AO2 SLP148 T02390139 =
2014-09-29 11:56 METAR KCXY 291556Z VRB05KT 10SM CLR 24/14 A2999 RMK AO2 SLP155 T02390144 =
2014-09-29 10:56 METAR KCXY 291456Z 00000KT 10SM CLR 24/14 A3000 RMK AO2 SLP157 T02390139 58005 =
2014-09-29 09:56 METAR KCXY 291356Z VRB04KT 10SM CLR 20/14 A3000 RMK AO2 SLP158 T02000139 =

Support USWX by starting your Amazon purchase here.